sensor_id;sensor_type;location;lat;lon;timestamp;temperature;humidity
29813;DHT22;16707;48.106;11.548;2023-04-03T00:01:02;2.60;99.90
29813;DHT22;16707;48.106;11.548;2023-04-03T00:03:37;2.60;99.90
29813;DHT22;16707;48.106;11.548;2023-04-03T00:06:13;2.50;99.90
29813;DHT22;16707;48.106;11.548;2023-04-03T00:08:42;2.50;99.90
29813;DHT22;16707;48.106;11.548;2023-04-03T00:11:09;2.50;99.90
29813;DHT22;16707;48.106;11.548;2023-04-03T00:13:39;2.50;99.90
29813;DHT22;16707;48.106;11.548;2023-04-03T00:16:07;2.70;99.90
29813;DHT22;16707;48.106;11.548;2023-04-03T00:18:35;2.70;99.90
29813;DHT22;16707;48.106;11.548;2023-04-03T00:21:06;2.60;99.90
29813;DHT22;16707;48.106;11.548;2023-04-03T00:23:33;2.70;99.90
29813;DHT22;16707;48.106;11.548;2023-04-03T00:26:02;2.60;99.90
29813;DHT22;16707;48.106;11.548;2023-04-03T00:28:29;2.70;99.90
29813;DHT22;16707;48.106;11.548;2023-04-03T00:30:56;2.70;99.90
29813;DHT22;16707;48.106;11.548;2023-04-03T00:33:24;2.80;99.90
29813;DHT22;16707;48.106;11.548;2023-04-03T00:35:53;2.60;99.90
29813;DHT22;16707;48.106;11.548;2023-04-03T00:38:20;2.70;99.90
29813;DHT22;16707;48.106;11.548;2023-04-03T00:40:48;2.50;99.90
29813;DHT22;16707;48.106;11.548;2023-04-03T00:43:21;2.60;99.90
29813;DHT22;16707;48.106;11.548;2023-04-03T00:45:49;2.70;99.90
29813;DHT22;16707;48.106;11.548;2023-04-03T00:48:27;2.80;99.90
29813;DHT22;16707;48.106;11.548;2023-04-03T00:50:54;2.70;99.90
29813;DHT22;16707;48.106;11.548;2023-04-03T00:53:24;2.70;99.90
29813;DHT22;16707;48.106;11.548;2023-04-03T00:55:53;2.60;99.90
29813;DHT22;16707;48.106;11.548;2023-04-03T00:58:28;2.60;99.90
29813;DHT22;16707;48.106;11.548;2023-04-03T01:01:05;2.50;99.90
29813;DHT22;16707;48.106;11.548;2023-04-03T01:03:33;2.60;99.90
29813;DHT22;16707;48.106;11.548;2023-04-03T01:06:01;2.80;99.90
29813;DHT22;16707;48.106;11.548;2023-04-03T01:08:27;2.70;99.90
29813;DHT22;16707;48.106;11.548;2023-04-03T01:10:55;2.80;99.90
29813;DHT22;16707;48.106;11.548;2023-04-03T01:13:32;2.80;99.90
29813;DHT22;16707;48.106;11.548;2023-04-03T01:16:06;2.80;99.90
29813;DHT22;16707;48.106;11.548;2023-04-03T01:18:39;2.60;99.90
29813;DHT22;16707;48.106;11.548;2023-04-03T01:24:31;2.50;99.90
29813;DHT22;16707;48.106;11.548;2023-04-03T01:27:00;2.50;99.90
29813;DHT22;16707;48.106;11.548;2023-04-03T01:29:31;2.60;99.90
29813;DHT22;16707;48.106;11.548;2023-04-03T01:32:03;2.70;99.90
29813;DHT22;16707;48.106;11.548;2023-04-03T01:34:39;2.60;99.90
29813;DHT22;16707;48.106;11.548;2023-04-03T01:37:06;2.60;99.90
29813;DHT22;16707;48.106;11.548;2023-04-03T01:39:33;2.70;99.90
29813;DHT22;16707;48.106;11.548;2023-04-03T01:42:00;2.70;99.90
29813;DHT22;16707;48.106;11.548;2023-04-03T01:44:27;2.80;99.90
29813;DHT22;16707;48.106;11.548;2023-04-03T01:46:54;2.70;99.90
29813;DHT22;16707;48.106;11.548;2023-04-03T01:49:22;2.60;99.90
29813;DHT22;16707;48.106;11.548;2023-04-03T01:51:50;2.60;99.90
29813;DHT22;16707;48.106;11.548;2023-04-03T01:54:17;2.60;99.90
29813;DHT22;16707;48.106;11.548;2023-04-03T01:56:47;2.50;99.90
29813;DHT22;16707;48.106;11.548;2023-04-03T01:59:14;2.60;99.90
29813;DHT22;16707;48.106;11.548;2023-04-03T02:01:45;2.60;99.90
29813;DHT22;16707;48.106;11.548;2023-04-03T02:04:12;2.60;99.90
29813;DHT22;16707;48.106;11.548;2023-04-03T02:06:44;2.60;99.90
29813;DHT22;16707;48.106;11.548;2023-04-03T02:09:10;2.70;99.90
29813;DHT22;16707;48.106;11.548;2023-04-03T02:11:37;2.60;99.90
29813;DHT22;16707;48.106;11.548;2023-04-03T02:14:07;2.50;99.90
29813;DHT22;16707;48.106;11.548;2023-04-03T02:16:36;2.50;99.90
29813;DHT22;16707;48.106;11.548;2023-04-03T02:19:03;2.60;99.90
29813;DHT22;16707;48.106;11.548;2023-04-03T02:21:33;2.70;99.90
29813;DHT22;16707;48.106;11.548;2023-04-03T02:24:02;2.60;99.90
29813;DHT22;16707;48.106;11.548;2023-04-03T02:26:32;2.60;99.90
29813;DHT22;16707;48.106;11.548;2023-04-03T02:28:59;2.60;99.90
29813;DHT22;16707;48.106;11.548;2023-04-03T02:31:29;2.60;99.90
29813;DHT22;16707;48.106;11.548;2023-04-03T02:33:58;2.60;99.90
29813;DHT22;16707;48.106;11.548;2023-04-03T02:36:25;2.60;99.90
29813;DHT22;16707;48.106;11.548;2023-04-03T02:38:53;2.60;99.90
29813;DHT22;16707;48.106;11.548;2023-04-03T02:41:29;2.60;99.90
29813;DHT22;16707;48.106;11.548;2023-04-03T02:44:01;2.60;99.90
29813;DHT22;16707;48.106;11.548;2023-04-03T02:46:34;2.60;99.90
29813;DHT22;16707;48.106;11.548;2023-04-03T02:49:02;2.60;99.90
29813;DHT22;16707;48.106;11.548;2023-04-03T02:51:29;2.60;99.90
29813;DHT22;16707;48.106;11.548;2023-04-03T02:54:04;2.60;99.90
29813;DHT22;16707;48.106;11.548;2023-04-03T02:56:39;2.60;99.90
29813;DHT22;16707;48.106;11.548;2023-04-03T02:59:06;2.60;99.90
29813;DHT22;16707;48.106;11.548;2023-04-03T03:01:33;2.70;99.90
29813;DHT22;16707;48.106;11.548;2023-04-03T03:04:01;2.60;99.90
29813;DHT22;16707;48.106;11.548;2023-04-03T03:06:28;2.60;99.90
29813;DHT22;16707;48.106;11.548;2023-04-03T03:09:04;2.60;99.90
29813;DHT22;16707;48.106;11.548;2023-04-03T03:11:33;2.70;99.90
29813;DHT22;16707;48.106;11.548;2023-04-03T03:14:00;2.70;99.90
29813;DHT22;16707;48.106;11.548;2023-04-03T03:16:31;2.80;99.90
29813;DHT22;16707;48.106;11.548;2023-04-03T03:18:58;2.80;99.90
29813;DHT22;16707;48.106;11.548;2023-04-03T03:21:25;2.70;99.90
29813;DHT22;16707;48.106;11.548;2023-04-03T03:23:55;2.70;99.90
29813;DHT22;16707;48.106;11.548;2023-04-03T03:26:29;2.60;99.90
29813;DHT22;16707;48.106;11.548;2023-04-03T03:28:58;2.70;99.90
29813;DHT22;16707;48.106;11.548;2023-04-03T03:31:26;2.60;99.90
29813;DHT22;16707;48.106;11.548;2023-04-03T03:33:55;2.70;99.90
29813;DHT22;16707;48.106;11.548;2023-04-03T03:36:31;2.70;99.90
29813;DHT22;16707;48.106;11.548;2023-04-03T03:38:58;2.70;99.90
29813;DHT22;16707;48.106;11.548;2023-04-03T03:41:25;2.60;99.90
29813;DHT22;16707;48.106;11.548;2023-04-03T03:44:03;2.70;99.90
29813;DHT22;16707;48.106;11.548;2023-04-03T03:46:30;2.70;99.90
29813;DHT22;16707;48.106;11.548;2023-04-03T03:48:57;2.70;99.90
29813;DHT22;16707;48.106;11.548;2023-04-03T03:51:23;2.80;99.90
29813;DHT22;16707;48.106;11.548;2023-04-03T03:53:55;2.70;99.90
29813;DHT22;16707;48.106;11.548;2023-04-03T03:56:22;2.70;99.90
29813;DHT22;16707;48.106;11.548;2023-04-03T03:58:52;2.70;99.90
29813;DHT22;16707;48.106;11.548;2023-04-03T04:01:28;2.60;99.90
29813;DHT22;16707;48.106;11.548;2023-04-03T04:03:56;2.70;99.90
29813;DHT22;16707;48.106;11.548;2023-04-03T04:06:29;2.60;99.90
29813;DHT22;16707;48.106;11.548;2023-04-03T04:08:56;2.60;99.90
29813;DHT22;16707;48.106;11.548;2023-04-03T04:11:23;2.60;99.90
29813;DHT22;16707;48.106;11.548;2023-04-03T04:14:00;2.70;99.90
29813;DHT22;16707;48.106;11.548;2023-04-03T04:16:34;2.70;99.90
29813;DHT22;16707;48.106;11.548;2023-04-03T04:19:01;2.70;99.90
29813;DHT22;16707;48.106;11.548;2023-04-03T04:21:31;2.60;99.90
29813;DHT22;16707;48.106;11.548;2023-04-03T04:23:58;2.70;99.90
29813;DHT22;16707;48.106;11.548;2023-04-03T04:26:25;2.70;99.90
29813;DHT22;16707;48.106;11.548;2023-04-03T04:28:52;2.70;99.90
29813;DHT22;16707;48.106;11.548;2023-04-03T04:31:20;2.70;99.90
29813;DHT22;16707;48.106;11.548;2023-04-03T04:33:48;2.70;99.90
29813;DHT22;16707;48.106;11.548;2023-04-03T04:36:15;2.70;99.90
29813;DHT22;16707;48.106;11.548;2023-04-03T04:38:42;2.60;99.90
29813;DHT22;16707;48.106;11.548;2023-04-03T04:41:14;2.70;99.90
29813;DHT22;16707;48.106;11.548;2023-04-03T04:43:41;2.70;99.90
29813;DHT22;16707;48.106;11.548;2023-04-03T04:46:14;2.60;99.90
29813;DHT22;16707;48.106;11.548;2023-04-03T04:48:41;2.60;99.90
29813;DHT22;16707;48.106;11.548;2023-04-03T04:51:10;2.60;99.90
29813;DHT22;16707;48.106;11.548;2023-04-03T04:53:37;2.60;99.90
29813;DHT22;16707;48.106;11.548;2023-04-03T04:56:11;2.60;99.90
29813;DHT22;16707;48.106;11.548;2023-04-03T04:58:41;2.70;99.90
29813;DHT22;16707;48.106;11.548;2023-04-03T05:01:11;2.60;99.90
29813;DHT22;16707;48.106;11.548;2023-04-03T05:03:38;2.60;99.90
29813;DHT22;16707;48.106;11.548;2023-04-03T05:06:05;2.60;99.90
29813;DHT22;16707;48.106;11.548;2023-04-03T05:08:34;2.60;99.90
29813;DHT22;16707;48.106;11.548;2023-04-03T05:11:02;2.70;99.90
29813;DHT22;16707;48.106;11.548;2023-04-03T05:13:29;2.70;99.90
29813;DHT22;16707;48.106;11.548;2023-04-03T05:15:59;2.90;99.90
29813;DHT22;16707;48.106;11.548;2023-04-03T05:18:31;2.80;99.90
29813;DHT22;16707;48.106;11.548;2023-04-03T05:20:58;2.90;99.90
29813;DHT22;16707;48.106;11.548;2023-04-03T05:23:25;2.70;99.90
29813;DHT22;16707;48.106;11.548;2023-04-03T05:25:57;2.70;99.90
29813;DHT22;16707;48.106;11.548;2023-04-03T05:28:27;2.80;99.90
29813;DHT22;16707;48.106;11.548;2023-04-03T05:30:55;2.70;99.90
29813;DHT22;16707;48.106;11.548;2023-04-03T05:33:26;2.70;99.90
29813;DHT22;16707;48.106;11.548;2023-04-03T05:35:53;2.70;99.90
29813;DHT22;16707;48.106;11.548;2023-04-03T05:38:23;2.70;99.90
29813;DHT22;16707;48.106;11.548;2023-04-03T05:40:54;2.70;99.90
29813;DHT22;16707;48.106;11.548;2023-04-03T05:43:21;2.70;99.90
29813;DHT22;16707;48.106;11.548;2023-04-03T05:45:48;2.80;99.90
29813;DHT22;16707;48.106;11.548;2023-04-03T05:48:15;2.80;99.90
29813;DHT22;16707;48.106;11.548;2023-04-03T05:50:42;2.90;99.90
29813;DHT22;16707;48.106;11.548;2023-04-03T05:53:15;2.80;99.90
29813;DHT22;16707;48.106;11.548;2023-04-03T05:55:44;2.90;99.90
29813;DHT22;16707;48.106;11.548;2023-04-03T05:58:20;3.00;99.90
29813;DHT22;16707;48.106;11.548;2023-04-03T06:00:47;3.00;99.90
29813;DHT22;16707;48.106;11.548;2023-04-03T06:03:18;3.10;99.90
29813;DHT22;16707;48.106;11.548;2023-04-03T06:05:45;3.10;99.90
29813;DHT22;16707;48.106;11.548;2023-04-03T06:08:15;3.20;99.90
29813;DHT22;16707;48.106;11.548;2023-04-03T06:10:45;3.30;99.90
29813;DHT22;16707;48.106;11.548;2023-04-03T06:13:14;3.40;99.90
29813;DHT22;16707;48.106;11.548;2023-04-03T06:15:41;3.30;99.90
29813;DHT22;16707;48.106;11.548;2023-04-03T06:18:08;3.50;99.90
29813;DHT22;16707;48.106;11.548;2023-04-03T06:20:35;3.40;99.90
29813;DHT22;16707;48.106;11.548;2023-04-03T06:23:02;3.30;99.90
29813;DHT22;16707;48.106;11.548;2023-04-03T06:25:34;3.40;99.90
29813;DHT22;16707;48.106;11.548;2023-04-03T06:28:07;3.40;99.90
29813;DHT22;16707;48.106;11.548;2023-04-03T06:30:38;3.50;99.90
29813;DHT22;16707;48.106;11.548;2023-04-03T06:33:05;3.60;99.90
29813;DHT22;16707;48.106;11.548;2023-04-03T06:35:37;3.60;99.90
29813;DHT22;16707;48.106;11.548;2023-04-03T06:38:04;3.60;99.90
29813;DHT22;16707;48.106;11.548;2023-04-03T06:40:37;3.60;99.90
29813;DHT22;16707;48.106;11.548;2023-04-03T06:43:04;3.50;99.90
29813;DHT22;16707;48.106;11.548;2023-04-03T06:45:33;3.50;99.90
29813;DHT22;16707;48.106;11.548;2023-04-03T06:48:03;3.50;99.90
29813;DHT22;16707;48.106;11.548;2023-04-03T06:50:33;3.60;99.90
29813;DHT22;16707;48.106;11.548;2023-04-03T06:53:03;3.80;99.90
29813;DHT22;16707;48.106;11.548;2023-04-03T06:55:30;4.00;99.90
29813;DHT22;16707;48.106;11.548;2023-04-03T06:57:57;4.00;99.90
29813;DHT22;16707;48.106;11.548;2023-04-03T07:00:24;4.10;99.90
29813;DHT22;16707;48.106;11.548;2023-04-03T07:02:51;4.10;99.90
29813;DHT22;16707;48.106;11.548;2023-04-03T07:05:19;4.10;99.50
29813;DHT22;16707;48.106;11.548;2023-04-03T07:07:48;4.10;99.90
29813;DHT22;16707;48.106;11.548;2023-04-03T07:10:17;4.10;99.80
29813;DHT22;16707;48.106;11.548;2023-04-03T07:12:44;4.10;99.80
29813;DHT22;16707;48.106;11.548;2023-04-03T07:15:14;4.10;99.80
29813;DHT22;16707;48.106;11.548;2023-04-03T07:17:43;4.00;99.90
29813;DHT22;16707;48.106;11.548;2023-04-03T07:20:12;4.10;99.90
29813;DHT22;16707;48.106;11.548;2023-04-03T07:22:40;4.30;99.20
29813;DHT22;16707;48.106;11.548;2023-04-03T07:25:09;4.20;99.10
29813;DHT22;16707;48.106;11.548;2023-04-03T07:27:36;4.30;99.00
29813;DHT22;16707;48.106;11.548;2023-04-03T07:30:03;4.60;99.00
29813;DHT22;16707;48.106;11.548;2023-04-03T07:32:34;4.40;98.00
29813;DHT22;16707;48.106;11.548;2023-04-03T07:35:01;4.10;98.60
29813;DHT22;16707;48.106;11.548;2023-04-03T07:37:28;4.20;98.50
29813;DHT22;16707;48.106;11.548;2023-04-03T07:39:59;4.30;98.60
29813;DHT22;16707;48.106;11.548;2023-04-03T07:42:29;4.70;98.70
29813;DHT22;16707;48.106;11.548;2023-04-03T07:44:58;4.90;98.50
29813;DHT22;16707;48.106;11.548;2023-04-03T07:47:25;5.00;98.00
29813;DHT22;16707;48.106;11.548;2023-04-03T07:49:52;4.80;97.40
29813;DHT22;16707;48.106;11.548;2023-04-03T07:52:19;4.80;97.40
29813;DHT22;16707;48.106;11.548;2023-04-03T07:54:46;4.80;97.40
29813;DHT22;16707;48.106;11.548;2023-04-03T07:57:15;4.60;97.50
29813;DHT22;16707;48.106;11.548;2023-04-03T07:59:45;4.70;97.50
29813;DHT22;16707;48.106;11.548;2023-04-03T08:02:12;4.70;97.60
29813;DHT22;16707;48.106;11.548;2023-04-03T08:04:39;4.50;97.80
29813;DHT22;16707;48.106;11.548;2023-04-03T08:07:06;4.20;98.50
29813;DHT22;16707;48.106;11.548;2023-04-03T08:09:33;4.20;99.00
29813;DHT22;16707;48.106;11.548;2023-04-03T08:12:00;4.10;99.10
29813;DHT22;16707;48.106;11.548;2023-04-03T08:14:30;4.00;98.40
29813;DHT22;16707;48.106;11.548;2023-04-03T08:16:57;3.80;99.30
29813;DHT22;16707;48.106;11.548;2023-04-03T08:19:24;4.20;99.50
29813;DHT22;16707;48.106;11.548;2023-04-03T08:21:57;4.30;98.50
29813;DHT22;16707;48.106;11.548;2023-04-03T08:24:25;4.30;98.10
29813;DHT22;16707;48.106;11.548;2023-04-03T08:26:55;4.60;98.70
29813;DHT22;16707;48.106;11.548;2023-04-03T08:29:22;4.60;98.10
29813;DHT22;16707;48.106;11.548;2023-04-03T08:31:50;4.60;98.10
29813;DHT22;16707;48.106;11.548;2023-04-03T08:34:19;4.50;97.90
29813;DHT22;16707;48.106;11.548;2023-04-03T08:36:47;4.70;98.10
29813;DHT22;16707;48.106;11.548;2023-04-03T08:39:14;4.80;96.50
29813;DHT22;16707;48.106;11.548;2023-04-03T08:41:44;4.70;96.80
29813;DHT22;16707;48.106;11.548;2023-04-03T08:44:23;4.80;97.10
29813;DHT22;16707;48.106;11.548;2023-04-03T08:47:08;4.80;97.00
29813;DHT22;16707;48.106;11.548;2023-04-03T08:49:40;5.00;96.40
29813;DHT22;16707;48.106;11.548;2023-04-03T08:52:14;4.80;96.00
29813;DHT22;16707;48.106;11.548;2023-04-03T08:54:52;4.90;96.30
29813;DHT22;16707;48.106;11.548;2023-04-03T08:57:28;5.20;95.80
29813;DHT22;16707;48.106;11.548;2023-04-03T09:00:00;5.20;95.20
29813;DHT22;16707;48.106;11.548;2023-04-03T09:02:33;5.10;95.10
29813;DHT22;16707;48.106;11.548;2023-04-03T09:05:06;4.90;94.90
29813;DHT22;16707;48.106;11.548;2023-04-03T09:07:43;4.90;95.20
29813;DHT22;16707;48.106;11.548;2023-04-03T09:10:14;4.80;95.80
29813;DHT22;16707;48.106;11.548;2023-04-03T09:12:44;5.00;95.10
29813;DHT22;16707;48.106;11.548;2023-04-03T09:15:21;4.90;95.20
29813;DHT22;16707;48.106;11.548;2023-04-03T09:17:59;5.00;95.60
29813;DHT22;16707;48.106;11.548;2023-04-03T09:20:35;5.10;95.40
29813;DHT22;16707;48.106;11.548;2023-04-03T09:23:16;5.60;94.30
29813;DHT22;16707;48.106;11.548;2023-04-03T09:25:43;5.50;93.20
29813;DHT22;16707;48.106;11.548;2023-04-03T09:28:15;5.40;93.50
29813;DHT22;16707;48.106;11.548;2023-04-03T09:30:42;5.40;94.00
29813;DHT22;16707;48.106;11.548;2023-04-03T09:33:11;5.90;92.90
29813;DHT22;16707;48.106;11.548;2023-04-03T09:35:40;5.90;92.60
29813;DHT22;16707;48.106;11.548;2023-04-03T09:38:19;6.00;92.50
29813;DHT22;16707;48.106;11.548;2023-04-03T09:40:48;6.00;91.80
29813;DHT22;16707;48.106;11.548;2023-04-03T09:43:26;5.40;92.70
29813;DHT22;16707;48.106;11.548;2023-04-03T09:45:54;5.60;93.40
29813;DHT22;16707;48.106;11.548;2023-04-03T09:48:26;5.70;93.00
29813;DHT22;16707;48.106;11.548;2023-04-03T09:50:56;5.70;93.00
29813;DHT22;16707;48.106;11.548;2023-04-03T09:53:32;5.80;92.20
29813;DHT22;16707;48.106;11.548;2023-04-03T09:56:04;5.60;92.50
29813;DHT22;16707;48.106;11.548;2023-04-03T09:58:45;5.30;91.90
29813;DHT22;16707;48.106;11.548;2023-04-03T10:01:23;5.40;92.30
29813;DHT22;16707;48.106;11.548;2023-04-03T10:04:06;5.40;92.70
29813;DHT22;16707;48.106;11.548;2023-04-03T10:06:35;5.50;92.30
29813;DHT22;16707;48.106;11.548;2023-04-03T10:09:05;5.50;91.60
29813;DHT22;16707;48.106;11.548;2023-04-03T10:11:36;5.50;91.30
29813;DHT22;16707;48.106;11.548;2023-04-03T10:14:03;5.60;91.80
29813;DHT22;16707;48.106;11.548;2023-04-03T10:16:36;5.90;91.50
29813;DHT22;16707;48.106;11.548;2023-04-03T10:19:30;5.60;91.30
29813;DHT22;16707;48.106;11.548;2023-04-03T10:22:02;5.70;91.20
29813;DHT22;16707;48.106;11.548;2023-04-03T10:24:37;5.70;90.50
29813;DHT22;16707;48.106;11.548;2023-04-03T10:27:09;5.60;90.80
29813;DHT22;16707;48.106;11.548;2023-04-03T10:29:44;5.30;92.00
29813;DHT22;16707;48.106;11.548;2023-04-03T10:32:26;5.10;93.40
29813;DHT22;16707;48.106;11.548;2023-04-03T10:35:02;4.90;94.20
29813;DHT22;16707;48.106;11.548;2023-04-03T10:37:41;4.80;95.20
29813;DHT22;16707;48.106;11.548;2023-04-03T10:40:22;4.80;95.90
29813;DHT22;16707;48.106;11.548;2023-04-03T10:42:58;4.90;96.70
29813;DHT22;16707;48.106;11.548;2023-04-03T10:45:33;4.90;96.40
29813;DHT22;16707;48.106;11.548;2023-04-03T10:48:08;4.70;96.90
29813;DHT22;16707;48.106;11.548;2023-04-03T10:50:43;4.70;96.90
29813;DHT22;16707;48.106;11.548;2023-04-03T10:53:20;4.50;96.50
29813;DHT22;16707;48.106;11.548;2023-04-03T10:55:56;4.20;96.50
29813;DHT22;16707;48.106;11.548;2023-04-03T10:58:29;4.30;97.20
29813;DHT22;16707;48.106;11.548;2023-04-03T11:01:01;4.00;98.10
29813;DHT22;16707;48.106;11.548;2023-04-03T11:03:35;4.00;99.60
29813;DHT22;16707;48.106;11.548;2023-04-03T11:06:07;4.10;99.70
29813;DHT22;16707;48.106;11.548;2023-04-03T11:08:37;4.00;99.90
29813;DHT22;16707;48.106;11.548;2023-04-03T11:11:06;4.10;99.90
29813;DHT22;16707;48.106;11.548;2023-04-03T11:13:44;3.80;99.90
29813;DHT22;16707;48.106;11.548;2023-04-03T11:16:17;3.70;99.90
29813;DHT22;16707;48.106;11.548;2023-04-03T11:18:49;3.90;99.90
29813;DHT22;16707;48.106;11.548;2023-04-03T11:21:24;4.00;99.90
29813;DHT22;16707;48.106;11.548;2023-04-03T11:23:57;4.10;99.40
29813;DHT22;16707;48.106;11.548;2023-04-03T11:26:27;4.30;98.90
29813;DHT22;16707;48.106;11.548;2023-04-03T11:29:01;4.50;98.30
29813;DHT22;16707;48.106;11.548;2023-04-03T11:31:39;5.00;96.80
29813;DHT22;16707;48.106;11.548;2023-04-03T11:34:19;5.30;95.60
29813;DHT22;16707;48.106;11.548;2023-04-03T11:36:58;5.30;94.60
29813;DHT22;16707;48.106;11.548;2023-04-03T11:39:28;5.80;94.40
29813;DHT22;16707;48.106;11.548;2023-04-03T11:42:15;5.80;93.50
29813;DHT22;16707;48.106;11.548;2023-04-03T11:44:43;5.80;91.10
29813;DHT22;16707;48.106;11.548;2023-04-03T11:47:11;5.80;90.60
29813;DHT22;16707;48.106;11.548;2023-04-03T11:50:02;5.60;90.30
29813;DHT22;16707;48.106;11.548;2023-04-03T11:53:00;5.40;90.10
29813;DHT22;16707;48.106;11.548;2023-04-03T11:55:52;5.60;90.60
29813;DHT22;16707;48.106;11.548;2023-04-03T11:58:20;5.90;89.00
29813;DHT22;16707;48.106;11.548;2023-04-03T12:01:03;6.00;88.00
29813;DHT22;16707;48.106;11.548;2023-04-03T12:06:53;5.90;88.10
29813;DHT22;16707;48.106;11.548;2023-04-03T12:09:24;6.40;85.00
29813;DHT22;16707;48.106;11.548;2023-04-03T12:11:56;6.20;85.00
29813;DHT22;16707;48.106;11.548;2023-04-03T12:14:24;6.50;85.10
29813;DHT22;16707;48.106;11.548;2023-04-03T12:16:53;6.30;79.80
29813;DHT22;16707;48.106;11.548;2023-04-03T12:19:34;6.30;78.70
29813;DHT22;16707;48.106;11.548;2023-04-03T12:24:45;6.00;78.80
29813;DHT22;16707;48.106;11.548;2023-04-03T12:27:25;6.10;77.10
29813;DHT22;16707;48.106;11.548;2023-04-03T12:30:00;6.10;76.80
29813;DHT22;16707;48.106;11.548;2023-04-03T12:32:34;6.40;76.40
29813;DHT22;16707;48.106;11.548;2023-04-03T12:35:20;6.40;74.90
29813;DHT22;16707;48.106;11.548;2023-04-03T12:40:51;6.50;76.80
29813;DHT22;16707;48.106;11.548;2023-04-03T12:43:34;6.20;74.60
29813;DHT22;16707;48.106;11.548;2023-04-03T12:46:04;6.20;75.30
29813;DHT22;16707;48.106;11.548;2023-04-03T12:48:39;6.40;76.50
29813;DHT22;16707;48.106;11.548;2023-04-03T12:51:14;6.40;74.80
29813;DHT22;16707;48.106;11.548;2023-04-03T12:53:44;7.00;73.00
29813;DHT22;16707;48.106;11.548;2023-04-03T12:56:25;7.60;70.50
29813;DHT22;16707;48.106;11.548;2023-04-03T12:59:12;7.50;66.30
29813;DHT22;16707;48.106;11.548;2023-04-03T13:01:53;7.30;67.70
29813;DHT22;16707;48.106;11.548;2023-04-03T13:04:20;7.50;67.70
29813;DHT22;16707;48.106;11.548;2023-04-03T13:06:48;7.60;66.80
29813;DHT22;16707;48.106;11.548;2023-04-03T13:09:24;7.90;65.30
29813;DHT22;16707;48.106;11.548;2023-04-03T13:11:57;7.70;64.50
29813;DHT22;16707;48.106;11.548;2023-04-03T13:14:27;7.80;65.40
29813;DHT22;16707;48.106;11.548;2023-04-03T13:16:55;7.70;65.30
29813;DHT22;16707;48.106;11.548;2023-04-03T13:19:23;7.30;64.40
29813;DHT22;16707;48.106;11.548;2023-04-03T13:21:58;6.90;66.20
29813;DHT22;16707;48.106;11.548;2023-04-03T13:24:28;6.90;66.00
29813;DHT22;16707;48.106;11.548;2023-04-03T13:26:58;6.90;67.00
29813;DHT22;16707;48.106;11.548;2023-04-03T13:29:28;6.80;66.30
29813;DHT22;16707;48.106;11.548;2023-04-03T13:31:56;6.90;64.60
29813;DHT22;16707;48.106;11.548;2023-04-03T13:34:34;6.50;64.20
29813;DHT22;16707;48.106;11.548;2023-04-03T13:37:03;6.80;64.30
29813;DHT22;16707;48.106;11.548;2023-04-03T13:39:33;7.20;63.60
29813;DHT22;16707;48.106;11.548;2023-04-03T13:42:02;7.70;61.50
29813;DHT22;16707;48.106;11.548;2023-04-03T13:44:40;7.90;60.20
29813;DHT22;16707;48.106;11.548;2023-04-03T13:47:19;7.60;62.60
29813;DHT22;16707;48.106;11.548;2023-04-03T13:49:59;7.50;62.50
29813;DHT22;16707;48.106;11.548;2023-04-03T13:52:31;6.90;62.70
29813;DHT22;16707;48.106;11.548;2023-04-03T13:55:16;6.90;63.80
29813;DHT22;16707;48.106;11.548;2023-04-03T13:57:50;6.80;64.00
29813;DHT22;16707;48.106;11.548;2023-04-03T14:00:31;6.90;65.20
29813;DHT22;16707;48.106;11.548;2023-04-03T14:02:59;6.70;65.20
29813;DHT22;16707;48.106;11.548;2023-04-03T14:05:30;6.60;65.30
29813;DHT22;16707;48.106;11.548;2023-04-03T14:07:56;6.50;64.90
29813;DHT22;16707;48.106;11.548;2023-04-03T14:10:25;6.50;65.80
29813;DHT22;16707;48.106;11.548;2023-04-03T14:12:52;6.60;65.70
29813;DHT22;16707;48.106;11.548;2023-04-03T14:15:24;6.10;64.40
29813;DHT22;16707;48.106;11.548;2023-04-03T14:17:53;6.30;66.20
29813;DHT22;16707;48.106;11.548;2023-04-03T14:20:26;6.40;66.20
29813;DHT22;16707;48.106;11.548;2023-04-03T14:22:53;6.40;63.60
29813;DHT22;16707;48.106;11.548;2023-04-03T14:25:21;6.20;63.90
29813;DHT22;16707;48.106;11.548;2023-04-03T14:27:51;6.40;64.00
29813;DHT22;16707;48.106;11.548;2023-04-03T14:30:21;6.30;63.20
29813;DHT22;16707;48.106;11.548;2023-04-03T14:32:49;6.30;63.20
29813;DHT22;16707;48.106;11.548;2023-04-03T14:35:17;6.20;62.70
29813;DHT22;16707;48.106;11.548;2023-04-03T14:37:44;6.00;63.20
29813;DHT22;16707;48.106;11.548;2023-04-03T14:40:14;6.20;63.30
29813;DHT22;16707;48.106;11.548;2023-04-03T14:42:42;6.40;61.20
29813;DHT22;16707;48.106;11.548;2023-04-03T14:45:11;6.40;60.00
29813;DHT22;16707;48.106;11.548;2023-04-03T14:47:42;6.60;60.00
29813;DHT22;16707;48.106;11.548;2023-04-03T14:50:14;6.60;59.70
29813;DHT22;16707;48.106;11.548;2023-04-03T14:52:45;6.80;59.80
29813;DHT22;16707;48.106;11.548;2023-04-03T14:55:15;6.60;58.80
29813;DHT22;16707;48.106;11.548;2023-04-03T14:57:43;6.60;58.70
29813;DHT22;16707;48.106;11.548;2023-04-03T15:00:16;6.70;59.60
29813;DHT22;16707;48.106;11.548;2023-04-03T15:02:47;6.50;58.90
29813;DHT22;16707;48.106;11.548;2023-04-03T15:05:15;6.40;59.90
29813;DHT22;16707;48.106;11.548;2023-04-03T15:07:44;6.50;59.90
29813;DHT22;16707;48.106;11.548;2023-04-03T15:10:18;6.30;60.70
29813;DHT22;16707;48.106;11.548;2023-04-03T15:12:46;6.30;61.10
29813;DHT22;16707;48.106;11.548;2023-04-03T15:15:17;6.30;60.80
29813;DHT22;16707;48.106;11.548;2023-04-03T15:17:50;6.40;60.50
29813;DHT22;16707;48.106;11.548;2023-04-03T15:20:22;6.10;59.80
29813;DHT22;16707;48.106;11.548;2023-04-03T15:22:50;6.00;59.90
29813;DHT22;16707;48.106;11.548;2023-04-03T15:25:29;5.90;58.80
29813;DHT22;16707;48.106;11.548;2023-04-03T15:27:57;5.80;58.70
29813;DHT22;16707;48.106;11.548;2023-04-03T15:30:44;5.70;58.20
29813;DHT22;16707;48.106;11.548;2023-04-03T15:33:13;5.90;58.20
29813;DHT22;16707;48.106;11.548;2023-04-03T15:35:43;5.60;57.60
29813;DHT22;16707;48.106;11.548;2023-04-03T15:38:12;5.70;57.90
29813;DHT22;16707;48.106;11.548;2023-04-03T15:40:39;5.60;58.20
29813;DHT22;16707;48.106;11.548;2023-04-03T15:43:06;5.70;58.60
29813;DHT22;16707;48.106;11.548;2023-04-03T15:45:36;5.70;58.30
29813;DHT22;16707;48.106;11.548;2023-04-03T15:48:04;5.70;58.30
29813;DHT22;16707;48.106;11.548;2023-04-03T15:50:32;5.70;58.50
29813;DHT22;16707;48.106;11.548;2023-04-03T15:53:00;5.80;58.60
29813;DHT22;16707;48.106;11.548;2023-04-03T15:55:28;5.80;58.80
29813;DHT22;16707;48.106;11.548;2023-04-03T15:57:56;5.80;58.40
29813;DHT22;16707;48.106;11.548;2023-04-03T16:00:23;5.60;56.70
29813;DHT22;16707;48.106;11.548;2023-04-03T16:02:54;5.60;56.80
29813;DHT22;16707;48.106;11.548;2023-04-03T16:05:23;5.40;54.80